createdAt,value
2022-07-30T00:00:45.414Z,6.77
2022-07-30T00:02:18.914Z,5.63
2022-07-30T00:03:51.778Z,5.27
2022-07-30T00:05:24.692Z,6.53
2022-07-30T00:06:59.134Z,7.07
2022-07-30T00:08:32.143Z,4.53
2022-07-30T00:10:05.878Z,7.77
2022-07-30T00:11:38.643Z,6.73
2022-07-30T00:13:14.105Z,7.60
2022-07-30T00:14:47.114Z,6.70
2022-07-30T00:16:19.938Z,5.63
2022-07-30T00:17:51.758Z,5.33
2022-07-30T00:19:24.546Z,6.07
2022-07-30T00:20:59.095Z,6.77
2022-07-30T00:22:33.209Z,5.77
2022-07-30T00:24:06.710Z,7.40
2022-07-30T00:25:39.554Z,5.13
2022-07-30T00:27:14.367Z,5.87
2022-07-30T00:28:47.166Z,5.90
2022-07-30T00:30:19.992Z,5.17
2022-07-30T00:31:52.967Z,4.93
2022-07-30T00:33:25.714Z,6.97
2022-07-30T00:34:58.543Z,4.30
2022-07-30T00:36:31.328Z,5.00
2022-07-30T00:38:05.507Z,4.60
2022-07-30T00:39:38.250Z,5.63
2022-07-30T00:41:11.127Z,6.33
2022-07-30T00:42:46.176Z,5.70
2022-07-30T00:44:17.956Z,8.20
2022-07-30T00:45:50.831Z,5.27
2022-07-30T00:47:24.694Z,5.77
2022-07-30T00:48:57.450Z,5.33
2022-07-30T00:50:30.216Z,5.53
2022-07-30T00:52:03.444Z,4.67
2022-07-30T00:53:37.565Z,4.97
2022-07-30T00:55:13.063Z,4.30
2022-07-30T00:56:45.855Z,5.57
2022-07-30T00:58:18.633Z,4.90
2022-07-30T00:59:50.432Z,5.53
2022-07-30T01:01:23.322Z,5.70
2022-07-30T01:02:56.182Z,4.20
2022-07-30T01:04:27.980Z,6.70
2022-07-30T01:06:00.769Z,7.97
2022-07-30T01:07:34.101Z,6.43
2022-07-30T01:09:08.545Z,4.70
2022-07-30T01:10:41.380Z,7.50
2022-07-30T01:12:16.976Z,5.70
2022-07-30T01:13:49.841Z,6.80
2022-07-30T01:15:22.953Z,5.40
2022-07-30T01:16:55.946Z,5.13
2022-07-30T01:18:51.710Z,6.23
2022-07-30T01:20:26.898Z,5.70
2022-07-30T01:22:09.179Z,7.47
2022-07-30T01:23:47.429Z,4.47
2022-07-30T01:25:30.964Z,6.47
2022-07-30T01:27:06.155Z,6.57
2022-07-30T01:28:43.169Z,6.00
2022-07-30T01:30:21.888Z,5.53
2022-07-30T01:31:59.863Z,4.17
2022-07-30T01:33:35.101Z,4.50
2022-07-30T01:35:10.003Z,5.67
2022-07-30T01:36:45.915Z,4.90
2022-07-30T01:38:22.883Z,5.40
2022-07-30T01:39:56.507Z,5.40
2022-07-30T01:41:29.699Z,5.30
2022-07-30T01:43:05.372Z,5.77
2022-07-30T01:44:43.639Z,5.03
2022-07-30T01:46:18.511Z,4.90
2022-07-30T01:47:54.068Z,6.13
2022-07-30T01:49:28.370Z,7.93
2022-07-30T01:51:05.507Z,5.83
2022-07-30T01:52:39.336Z,6.90
2022-07-30T01:54:13.506Z,5.77
2022-07-30T01:55:47.486Z,6.20
2022-07-30T01:57:21.905Z,4.70
2022-07-30T01:58:58.020Z,6.20
2022-07-30T02:00:32.034Z,5.77
2022-07-30T02:02:04.806Z,7.00
2022-07-30T02:03:38.642Z,5.90
2022-07-30T02:05:11.519Z,6.33
2022-07-30T02:06:50.791Z,8.07
2022-07-30T02:08:29.387Z,4.70
2022-07-30T02:10:06.561Z,7.37
2022-07-30T02:12:02.054Z,5.30
2022-07-30T02:13:39.240Z,5.50
2022-07-30T02:15:18.608Z,6.30
2022-07-30T02:16:54.366Z,7.87
2022-07-30T02:18:32.443Z,7.83
2022-07-30T02:20:09.719Z,7.00
2022-07-30T02:21:50.603Z,5.60
2022-07-30T02:23:25.178Z,6.30
2022-07-30T02:25:01.774Z,7.33
2022-07-30T02:26:37.946Z,7.10
2022-07-30T02:28:13.727Z,9.10
2022-07-30T02:29:47.435Z,7.40
2022-07-30T02:31:25.757Z,7.57
2022-07-30T02:33:04.305Z,5.63
2022-07-30T02:34:40.068Z,5.03
2022-07-30T02:36:14.435Z,4.90
2022-07-30T02:37:52.066Z,7.93
2022-07-30T02:39:27.033Z,5.53
2022-07-30T02:41:02.591Z,7.40
2022-07-30T02:42:36.670Z,7.87
2022-07-30T02:44:10.356Z,5.93
2022-07-30T02:45:44.819Z,8.30
2022-07-30T02:47:20.487Z,5.90
2022-07-30T02:48:55.559Z,7.20
2022-07-30T02:50:29.301Z,7.93
2022-07-30T02:52:02.743Z,6.17
2022-07-30T02:53:36.304Z,6.13
2022-07-30T02:55:10.597Z,5.77
2022-07-30T02:56:44.192Z,10.10
2022-07-30T02:58:18.196Z,8.73
2022-07-30T02:59:52.955Z,6.60
2022-07-30T03:01:27.360Z,8.27
2022-07-30T03:03:02.364Z,6.50
2022-07-30T03:04:36.588Z,7.33
2022-07-30T03:06:10.967Z,8.20
2022-07-30T03:07:44.645Z,5.97
2022-07-30T03:09:19.384Z,7.70
2022-07-30T03:10:54.663Z,6.00
2022-07-30T03:12:31.071Z,6.63
2022-07-30T03:14:04.134Z,6.97
2022-07-30T03:15:39.266Z,6.23
2022-07-30T03:17:16.858Z,7.57
2022-07-30T03:18:53.562Z,6.27
2022-07-30T03:20:31.587Z,7.47
2022-07-30T03:22:07.787Z,7.60
2022-07-30T03:23:41.706Z,6.17
2022-07-30T03:25:17.027Z,6.07
2022-07-30T03:26:52.247Z,8.07
2022-07-30T03:28:25.909Z,7.17
2022-07-30T03:29:59.187Z,6.47
2022-07-30T03:31:36.537Z,7.50
2022-07-30T03:33:12.135Z,6.50
2022-07-30T03:34:48.122Z,5.93
2022-07-30T03:36:21.126Z,7.00
2022-07-30T03:37:55.191Z,6.80
2022-07-30T03:39:29.424Z,6.77
2022-07-30T03:41:02.491Z,6.43
2022-07-30T03:42:36.514Z,7.67
2022-07-30T03:44:10.091Z,7.80
2022-07-30T03:45:45.182Z,7.53
2022-07-30T03:47:20.203Z,6.53
2022-07-30T03:48:53.433Z,6.63
2022-07-30T03:50:28.835Z,6.70
2022-07-30T03:52:02.810Z,7.33
2022-07-30T03:53:35.843Z,6.93
2022-07-30T03:55:10.723Z,8.57
2022-07-30T03:56:44.120Z,9.07
2022-07-30T03:58:16.854Z,6.83
2022-07-30T03:59:51.596Z,7.30
2022-07-30T04:01:26.383Z,7.97
2022-07-30T04:02:59.242Z,7.83
2022-07-30T04:04:32.378Z,9.13
2022-07-30T04:06:06.724Z,10.37
2022-07-30T04:07:40.635Z,10.73
2022-07-30T04:09:17.731Z,8.00
2022-07-30T04:10:51.171Z,9.73
2022-07-30T04:12:23.879Z,11.27
2022-07-30T04:13:56.616Z,7.07
2022-07-30T04:16:37.303Z,8.63
2022-07-30T04:17:25.916Z,7.90
2022-07-30T04:19:01.026Z,7.30
2022-07-30T04:20:40.679Z,9.93
2022-07-30T04:22:17.878Z,7.97
2022-07-30T04:24:02.187Z,8.33
2022-07-30T04:25:38.438Z,8.37
2022-07-30T04:27:11.605Z,8.50
2022-07-30T04:28:44.738Z,7.53
2022-07-30T04:30:16.818Z,10.10
2022-07-30T04:31:49.673Z,8.20
2022-07-30T04:33:22.498Z,7.37
2022-07-30T04:34:56.015Z,9.53
2022-07-30T04:36:28.857Z,7.77
2022-07-30T04:38:04.108Z,8.23
2022-07-30T04:39:36.857Z,9.23
2022-07-30T04:41:09.603Z,7.53
2022-07-30T04:42:42.355Z,7.80
2022-07-30T04:44:14.170Z,8.03
2022-07-30T04:45:46.936Z,10.50
2022-07-30T04:47:19.270Z,8.27
2022-07-30T04:48:52.147Z,9.40
2022-07-30T04:50:27.841Z,8.90
2022-07-30T04:52:01.120Z,8.67
2022-07-30T04:53:36.227Z,9.00
2022-07-30T04:55:11.776Z,8.43
2022-07-30T04:56:52.553Z,11.17
2022-07-30T04:58:28.353Z,8.00
2022-07-30T05:00:01.308Z,8.53
2022-07-30T05:01:40.617Z,11.07
2022-07-30T05:03:15.277Z,8.23
2022-07-30T05:04:49.831Z,7.70
2022-07-30T05:06:23.620Z,6.87
2022-07-30T05:07:56.787Z,8.07
2022-07-30T05:09:31.925Z,9.40
2022-07-30T05:11:04.812Z,8.33
2022-07-30T05:12:38.399Z,8.07
2022-07-30T05:14:11.154Z,9.33
2022-07-30T05:15:45.394Z,7.20
2022-07-30T05:17:18.182Z,8.27
2022-07-30T05:18:51.254Z,7.10
2022-07-30T05:20:23.982Z,10.20
2022-07-30T05:21:57.703Z,8.63
2022-07-30T05:23:30.506Z,10.27
2022-07-30T05:25:05.296Z,9.57
2022-07-30T05:26:49.054Z,7.90
2022-07-30T05:28:22.226Z,7.83
2022-07-30T05:29:55.531Z,8.37
2022-07-30T05:31:29.896Z,9.90
2022-07-30T05:33:15.639Z,8.83
2022-07-30T05:34:49.842Z,10.40
2022-07-30T05:36:23.106Z,9.67
2022-07-30T05:37:55.883Z,8.80
2022-07-30T05:39:28.748Z,8.73
2022-07-30T05:41:02.849Z,10.60
2022-07-30T05:42:35.630Z,8.20
2022-07-30T05:44:08.407Z,7.50
2022-07-30T05:45:41.154Z,9.23
2022-07-30T05:47:13.924Z,7.60
2022-07-30T05:48:45.774Z,8.13
2022-07-30T05:50:18.557Z,8.30
2022-07-30T05:51:50.550Z,10.40
2022-07-30T05:53:23.758Z,8.53
2022-07-30T05:54:56.595Z,9.53
2022-07-30T05:56:30.759Z,11.83
2022-07-30T05:58:03.584Z,9.57
2022-07-30T05:59:36.332Z,9.10
2022-07-30T06:01:09.181Z,8.17
2022-07-30T06:02:41.011Z,7.97
2022-07-30T06:04:13.829Z,9.57
2022-07-30T06:05:46.635Z,8.77
2022-07-30T06:07:19.450Z,8.23
2022-07-30T06:08:52.200Z,8.50
2022-07-30T06:10:25.147Z,7.83
2022-07-30T06:11:59.231Z,9.10
2022-07-30T06:13:31.991Z,7.63
2022-07-30T06:15:05.643Z,9.00
2022-07-30T06:16:38.426Z,8.10
2022-07-30T06:18:11.203Z,7.47
2022-07-30T06:19:42.988Z,9.37
2022-07-30T06:21:15.742Z,8.83
2022-07-30T06:22:47.565Z,8.67
2022-07-30T06:24:20.332Z,7.83
2022-07-30T06:25:55.656Z,11.63
2022-07-30T06:27:31.986Z,7.30
2022-07-30T06:29:05.812Z,10.20
2022-07-30T06:30:38.606Z,9.13
2022-07-30T06:32:11.448Z,6.93
2022-07-30T06:33:44.317Z,8.73
2022-07-30T06:35:17.064Z,10.27
2022-07-30T06:36:50.262Z,9.20
2022-07-30T06:38:22.019Z,7.60
2022-07-30T06:39:57.781Z,11.03
2022-07-30T06:41:31.236Z,11.57
2022-07-30T06:43:04.382Z,10.03
2022-07-30T06:44:37.119Z,8.63
2022-07-30T06:46:09.908Z,7.70
2022-07-30T06:47:42.670Z,9.73
2022-07-30T06:49:15.522Z,8.20
2022-07-30T06:50:48.330Z,9.87
2022-07-30T06:52:21.308Z,8.37
2022-07-30T06:53:53.163Z,8.10
2022-07-30T06:55:26.127Z,6.90
2022-07-30T06:56:59.134Z,7.73
2022-07-30T06:58:34.130Z,8.03
2022-07-30T07:00:08.430Z,8.50
2022-07-30T07:01:41.220Z,7.50
2022-07-30T07:03:13.052Z,7.83
2022-07-30T07:04:45.838Z,8.00
2022-07-30T07:06:19.375Z,8.63
2022-07-30T07:07:59.201Z,11.47
2022-07-30T07:09:32.678Z,5.97
2022-07-30T07:11:10.866Z,9.83
2022-07-30T07:12:43.763Z,8.07
2022-07-30T07:14:17.967Z,8.43
2022-07-30T07:15:50.896Z,8.37
2022-07-30T07:17:23.825Z,8.27
2022-07-30T07:18:56.730Z,6.83
2022-07-30T07:20:29.534Z,6.37
2022-07-30T07:22:02.299Z,7.60
2022-07-30T07:23:41.523Z,9.07
2022-07-30T07:25:15.890Z,9.50
2022-07-30T07:26:48.719Z,8.90
2022-07-30T07:28:21.512Z,7.60
2022-07-30T07:30:08.811Z,7.07
2022-07-30T07:32:06.111Z,9.13
2022-07-30T07:33:34.631Z,8.33
2022-07-30T07:35:08.283Z,8.17
2022-07-30T07:36:41.128Z,11.50
2022-07-30T07:38:13.875Z,11.43
2022-07-30T07:39:46.623Z,9.20
2022-07-30T07:41:19.398Z,9.23
2022-07-30T07:42:52.244Z,8.13
2022-07-30T07:44:25.170Z,8.97
2022-07-30T07:45:59.447Z,8.23
2022-07-30T07:47:32.263Z,8.07
2022-07-30T07:49:04.401Z,7.90
2022-07-30T07:50:37.427Z,9.13
2022-07-30T07:52:10.234Z,7.43
2022-07-30T07:53:42.976Z,9.43
2022-07-30T07:55:15.747Z,8.37
2022-07-30T07:56:51.470Z,7.93
2022-07-30T07:58:26.401Z,7.60
2022-07-30T07:59:59.454Z,8.13
2022-07-30T08:01:34.247Z,6.90
2022-07-30T08:03:07.119Z,6.47
2022-07-30T08:04:40.231Z,6.93
2022-07-30T08:06:15.099Z,6.73
2022-07-30T08:07:48.086Z,5.73
2022-07-30T08:09:20.843Z,5.77
2022-07-30T08:10:53.623Z,5.67
2022-07-30T08:12:27.215Z,6.70
2022-07-30T08:13:59.994Z,6.63
2022-07-30T08:15:31.897Z,4.97
2022-07-30T08:17:06.529Z,7.23
2022-07-30T08:18:39.598Z,6.20
2022-07-30T08:20:13.819Z,6.43
2022-07-30T08:21:46.580Z,5.07
2022-07-30T08:23:22.083Z,6.97
2022-07-30T08:24:55.518Z,7.47
2022-07-30T08:26:28.255Z,5.47
2022-07-30T08:28:03.065Z,7.40
2022-07-30T08:29:36.263Z,6.67
2022-07-30T08:31:09.064Z,4.60
2022-07-30T08:32:43.159Z,5.47
2022-07-30T08:34:15.971Z,5.67
2022-07-30T08:35:52.860Z,5.70
2022-07-30T08:37:32.019Z,7.03
2022-07-30T08:39:04.898Z,5.50
2022-07-30T08:40:37.716Z,5.10
2022-07-30T08:42:10.789Z,5.77
2022-07-30T08:43:43.842Z,4.70
2022-07-30T08:45:18.682Z,6.53
2022-07-30T08:46:56.123Z,4.93
2022-07-30T08:48:31.147Z,7.15
2022-07-30T08:50:05.399Z,4.38
2022-07-30T08:51:38.289Z,6.90
2022-07-30T08:53:11.334Z,5.13
2022-07-30T08:54:45.082Z,4.63
2022-07-30T08:56:18.359Z,4.75
2022-07-30T08:57:51.971Z,5.22
2022-07-30T08:59:25.474Z,6.65
2022-07-30T09:01:18.308Z,5.90
2022-07-30T09:02:51.083Z,5.57
2022-07-30T09:04:24.264Z,5.22
2022-07-30T09:05:57.987Z,4.00
2022-07-30T09:07:32.712Z,6.10
2022-07-30T09:09:05.504Z,4.53
2022-07-30T09:10:37.352Z,4.50
2022-07-30T09:12:34.842Z,3.90
2022-07-30T09:14:12.452Z,4.13
2022-07-30T09:15:45.256Z,4.32
2022-07-30T09:17:18.073Z,5.47
2022-07-30T09:18:52.282Z,6.57
2022-07-30T09:20:28.631Z,6.15
2022-07-30T09:22:02.831Z,6.38
2022-07-30T09:23:35.615Z,4.45
2022-07-30T09:25:09.416Z,3.13
2022-07-30T09:26:55.568Z,4.00
2022-07-30T09:28:30.427Z,3.95
2022-07-30T09:30:08.513Z,5.30
2022-07-30T09:31:54.736Z,3.60
2022-07-30T09:33:38.691Z,4.15
2022-07-30T09:35:14.727Z,6.53
2022-07-30T09:36:48.872Z,3.97
2022-07-30T09:38:21.963Z,3.20
2022-07-30T09:39:59.229Z,3.90
2022-07-30T09:41:39.271Z,4.50
2022-07-30T09:43:13.147Z,2.95
2022-07-30T09:44:46.619Z,5.13
2022-07-30T09:46:19.532Z,4.35
2022-07-30T09:47:52.488Z,4.93
2022-07-30T09:49:27.120Z,3.20
2022-07-30T09:50:59.967Z,4.03
2022-07-30T09:52:36.395Z,3.38
2022-07-30T09:54:16.838Z,4.25
2022-07-30T09:55:50.724Z,3.38
2022-07-30T09:57:27.651Z,5.00
2022-07-30T09:59:00.792Z,3.63
2022-07-30T10:00:36.732Z,3.10
2022-07-30T10:02:11.116Z,3.65
2022-07-30T10:03:44.180Z,3.38
2022-07-30T10:05:20.562Z,2.80
2022-07-30T10:06:53.700Z,2.60
2022-07-30T10:08:42.494Z,3.25
2022-07-30T10:10:20.699Z,3.45
2022-07-30T10:11:55.255Z,3.13
2022-07-30T10:13:29.568Z,3.05
2022-07-30T10:15:07.275Z,2.72
2022-07-30T10:16:40.292Z,2.80
2022-07-30T10:18:13.879Z,3.75
2022-07-30T10:19:49.662Z,4.43
2022-07-30T10:21:22.516Z,2.50
2022-07-30T10:22:59.065Z,2.50
2022-07-30T10:24:36.251Z,3.78
2022-07-30T10:26:09.565Z,3.60
2022-07-30T10:27:42.658Z,3.97
2022-07-30T10:29:17.885Z,3.10
2022-07-30T10:30:52.113Z,2.73
2022-07-30T10:32:27.454Z,3.83
2022-07-30T10:34:03.962Z,3.10
2022-07-30T10:35:38.434Z,3.20
2022-07-30T10:37:12.979Z,2.60
2022-07-30T10:38:46.985Z,3.30
2022-07-30T10:40:31.661Z,3.33
2022-07-30T10:42:17.605Z,2.13
2022-07-30T10:44:21.677Z,2.10
2022-07-30T10:46:02.696Z,3.38
2022-07-30T10:47:44.921Z,2.27
2022-07-30T10:49:22.215Z,2.00
2022-07-30T10:50:57.651Z,2.33
2022-07-30T10:52:44.445Z,3.20
2022-07-30T10:54:39.865Z,2.80
2022-07-30T10:56:18.554Z,3.10
2022-07-30T10:58:00.486Z,4.43
2022-07-30T11:00:06.891Z,2.30
2022-07-30T11:02:08.943Z,2.27
2022-07-30T11:03:45.002Z,2.53
2022-07-30T11:05:43.935Z,3.23
2022-07-30T11:07:31.326Z,2.30
2022-07-30T11:09:41.056Z,2.47
2022-07-30T11:12:01.866Z,2.40
2022-07-30T11:13:54.187Z,2.63
2022-07-30T11:15:55.672Z,4.57
2022-07-30T11:18:01.833Z,2.23
2022-07-30T11:19:53.353Z,2.57
2022-07-30T11:21:27.460Z,3.43
2022-07-30T11:23:14.240Z,2.43
2022-07-30T11:24:48.945Z,2.53
2022-07-30T11:26:51.027Z,2.63
2022-07-30T11:28:38.371Z,2.90
2022-07-30T11:30:34.062Z,3.33
2022-07-30T11:32:32.850Z,3.43
2022-07-30T11:34:27.591Z,2.90
2022-07-30T11:36:10.618Z,2.63
2022-07-30T11:38:04.641Z,4.30
2022-07-30T11:40:08.287Z,2.20
2022-07-30T11:41:41.119Z,2.57
2022-07-30T11:43:34.661Z,2.40
2022-07-30T11:45:29.610Z,3.00
2022-07-30T11:47:03.979Z,2.47
2022-07-30T11:48:37.763Z,2.30
2022-07-30T11:50:17.714Z,2.33
2022-07-30T11:51:50.947Z,3.63
2022-07-30T11:53:23.761Z,2.83
2022-07-30T11:54:56.566Z,2.33
2022-07-30T11:56:29.424Z,3.20
2022-07-30T11:58:04.902Z,2.00
2022-07-30T11:59:57.920Z,2.23
2022-07-30T12:01:33.292Z,3.33
2022-07-30T12:03:11.361Z,2.00
2022-07-30T12:04:44.718Z,3.67
2022-07-30T12:06:18.006Z,3.13
2022-07-30T12:07:53.407Z,2.10
2022-07-30T12:09:28.804Z,3.40
2022-07-30T12:11:02.732Z,2.00
2022-07-30T12:12:35.539Z,2.53
2022-07-30T12:14:08.506Z,2.83
2022-07-30T12:15:44.710Z,2.17
2022-07-30T12:17:17.716Z,4.93
2022-07-30T12:18:50.590Z,1.90
2022-07-30T12:20:23.461Z,2.00
2022-07-30T12:22:00.515Z,3.67
2022-07-30T12:23:33.343Z,2.40
2022-07-30T12:25:08.994Z,3.97
2022-07-30T12:26:42.291Z,3.63
2022-07-30T12:28:21.595Z,2.77
2022-07-30T12:29:54.505Z,2.73
2022-07-30T12:31:29.146Z,2.07
2022-07-30T12:33:02.714Z,1.90
2022-07-30T12:34:35.489Z,3.73
2022-07-30T12:36:09.983Z,2.27
2022-07-30T12:38:02.282Z,4.10
2022-07-30T12:39:35.075Z,2.73
2022-07-30T12:41:08.012Z,3.73
2022-07-30T12:42:51.825Z,1.90
2022-07-30T12:44:35.709Z,3.97
2022-07-30T12:46:11.921Z,3.17
2022-07-30T12:47:51.407Z,2.10
2022-07-30T12:49:36.587Z,2.83
2022-07-30T12:51:18.734Z,2.40
2022-07-30T12:52:52.939Z,3.33
2022-07-30T12:54:25.980Z,3.17
2022-07-30T12:56:11.896Z,2.17
2022-07-30T12:58:02.892Z,3.20
2022-07-30T12:59:40.496Z,2.07
2022-07-30T13:01:14.093Z,2.20
2022-07-30T13:02:48.522Z,3.57
2022-07-30T13:04:21.521Z,2.63
2022-07-30T13:05:55.971Z,2.90
2022-07-30T13:07:32.066Z,2.30
2022-07-30T13:09:06.026Z,2.40
2022-07-30T13:10:38.950Z,2.60
2022-07-30T13:12:14.132Z,2.33
2022-07-30T13:13:47.308Z,2.40
2022-07-30T13:15:21.216Z,2.30
2022-07-30T13:16:54.823Z,2.53
2022-07-30T13:18:29.652Z,3.40
2022-07-30T13:20:02.622Z,4.17
2022-07-30T13:21:35.451Z,4.00
2022-07-30T13:23:08.211Z,2.13
2022-07-30T13:24:41.004Z,2.43
2022-07-30T13:26:13.759Z,2.77
2022-07-30T13:27:46.600Z,2.40
2022-07-30T13:29:19.375Z,3.33
2022-07-30T13:30:51.813Z,4.73
2022-07-30T13:32:24.591Z,2.83
2022-07-30T13:33:58.780Z,2.90
2022-07-30T13:35:31.535Z,2.40
2022-07-30T13:37:04.723Z,2.70
2022-07-30T13:38:37.762Z,2.33
2022-07-30T13:40:11.551Z,2.37
2022-07-30T13:41:44.531Z,2.40
2022-07-30T13:43:17.329Z,3.53
2022-07-30T13:44:50.876Z,3.90
2022-07-30T13:46:23.602Z,2.93
2022-07-30T13:47:56.843Z,2.40
2022-07-30T13:49:30.983Z,4.47
2022-07-30T13:51:05.623Z,3.87
2022-07-30T13:52:38.382Z,2.50
2022-07-30T13:54:12.570Z,4.10
2022-07-30T13:55:46.891Z,3.00
2022-07-30T13:57:19.668Z,2.50
2022-07-30T13:58:52.563Z,2.57
2022-07-30T14:00:25.589Z,2.60
2022-07-30T14:01:58.460Z,2.73
2022-07-30T14:03:31.284Z,2.30
2022-07-30T14:05:07.042Z,2.40
2022-07-30T14:06:40.245Z,2.83
2022-07-30T14:08:13.299Z,2.40
2022-07-30T14:09:47.701Z,2.40
2022-07-30T14:11:22.390Z,3.77
2022-07-30T14:12:55.275Z,2.50
2022-07-30T14:14:28.274Z,3.77
2022-07-30T14:16:01.474Z,3.57
2022-07-30T14:17:34.310Z,2.10
2022-07-30T14:19:07.506Z,2.87
2022-07-30T14:20:43.636Z,4.87
2022-07-30T14:22:19.591Z,2.97
2022-07-30T14:23:52.336Z,4.13
2022-07-30T14:25:25.457Z,2.40
2022-07-30T14:26:58.599Z,3.00
2022-07-30T14:28:31.523Z,2.80
2022-07-30T14:30:06.348Z,2.87
2022-07-30T14:31:40.520Z,2.77
2022-07-30T14:33:13.314Z,2.00
2022-07-30T14:34:49.430Z,2.20
2022-07-30T14:36:25.508Z,2.60
2022-07-30T14:37:58.324Z,3.23
2022-07-30T14:39:31.135Z,2.43
2022-07-30T14:41:03.890Z,3.70
2022-07-30T14:42:36.861Z,2.73
2022-07-30T14:44:12.088Z,2.93
2022-07-30T14:45:44.991Z,2.63
2022-07-30T14:47:17.860Z,2.03
2022-07-30T14:48:50.922Z,3.23
2022-07-30T14:50:23.823Z,4.00
2022-07-30T14:51:58.298Z,1.93
2022-07-30T14:53:31.048Z,2.23
2022-07-30T14:55:04.132Z,1.83
2022-07-30T14:56:40.091Z,2.40
2022-07-30T14:58:12.886Z,1.73
2022-07-30T14:59:45.754Z,1.70
2022-07-30T15:01:18.724Z,1.83
2022-07-30T15:02:51.482Z,2.70
2022-07-30T15:04:24.277Z,6.13
2022-07-30T15:05:57.087Z,2.23
2022-07-30T15:07:32.466Z,3.00
2022-07-30T15:09:07.949Z,2.43
2022-07-30T15:10:41.127Z,3.43
2022-07-30T15:12:23.604Z,2.20
2022-07-30T15:13:59.847Z,2.10
2022-07-30T15:15:38.145Z,1.53
2022-07-30T15:17:11.170Z,2.67
2022-07-30T15:18:43.935Z,3.00
2022-07-30T15:20:16.722Z,2.30
2022-07-30T15:21:49.820Z,1.83
2022-07-30T15:23:24.046Z,2.10
2022-07-30T15:24:56.834Z,2.20
2022-07-30T15:26:29.884Z,2.90
2022-07-30T15:28:02.667Z,2.00
2022-07-30T15:29:35.487Z,2.30
2022-07-30T15:31:08.375Z,2.10
2022-07-30T15:32:41.123Z,3.07
2022-07-30T15:34:13.902Z,1.80
2022-07-30T15:35:46.737Z,4.13
2022-07-30T15:37:19.591Z,4.20
2022-07-30T15:38:53.699Z,1.90
2022-07-30T15:40:26.656Z,2.23
2022-07-30T15:42:00.250Z,4.87
2022-07-30T15:43:33.401Z,1.90
2022-07-30T15:45:17.163Z,3.30
2022-07-30T15:46:50.304Z,2.93
2022-07-30T15:48:24.836Z,2.93
2022-07-30T15:49:59.904Z,2.10
2022-07-30T15:51:33.192Z,2.90
2022-07-30T15:53:09.728Z,2.17
2022-07-30T15:54:45.348Z,2.10
2022-07-30T15:56:18.503Z,2.83
2022-07-30T15:57:51.256Z,2.33
2022-07-30T15:59:24.012Z,2.30
2022-07-30T16:00:57.201Z,2.83
2022-07-30T16:02:30.039Z,1.97
2022-07-30T16:04:02.855Z,1.90
2022-07-30T16:05:52.288Z,2.80
2022-07-30T16:07:25.606Z,1.73
2022-07-30T16:08:58.405Z,2.10
2022-07-30T16:10:34.453Z,2.00
2022-07-30T16:12:08.392Z,2.93
2022-07-30T16:13:41.188Z,2.53
2022-07-30T16:15:14.030Z,5.00
2022-07-30T16:16:49.172Z,2.27
2022-07-30T16:18:21.979Z,2.03
2022-07-30T16:19:54.751Z,4.00
2022-07-30T16:21:27.633Z,4.77
2022-07-30T16:23:00.591Z,2.30
2022-07-30T16:24:33.548Z,2.17
2022-07-30T16:26:07.650Z,2.73
2022-07-30T16:27:40.419Z,2.47
2022-07-30T16:29:14.027Z,2.40
2022-07-30T16:30:50.759Z,2.20
2022-07-30T16:32:24.463Z,2.23
2022-07-30T16:33:57.251Z,2.53
2022-07-30T16:35:30.016Z,3.17
2022-07-30T16:37:03.872Z,2.20
2022-07-30T16:38:37.281Z,2.60
2022-07-30T16:40:11.489Z,3.27
2022-07-30T16:41:45.621Z,2.40
2022-07-30T16:43:19.513Z,2.30
2022-07-30T16:44:52.767Z,2.53
2022-07-30T16:46:25.552Z,2.10
2022-07-30T16:47:58.564Z,3.50
2022-07-30T16:49:31.359Z,4.37
2022-07-30T16:51:04.507Z,7.93
2022-07-30T16:52:37.295Z,2.53
2022-07-30T16:54:10.048Z,7.43
2022-07-30T16:55:43.175Z,3.13
2022-07-30T16:57:17.422Z,2.23
2022-07-30T16:58:50.270Z,2.60
2022-07-30T17:00:23.017Z,6.70
2022-07-30T17:01:55.840Z,2.73
2022-07-30T17:03:28.663Z,5.10
2022-07-30T17:05:01.499Z,2.97
2022-07-30T17:06:35.435Z,4.73
2022-07-30T17:08:08.232Z,3.03
2022-07-30T17:09:41.204Z,5.20
2022-07-30T17:11:45.909Z,4.23
2022-07-30T17:13:08.051Z,4.03
2022-07-30T17:14:41.313Z,1.97
2022-07-30T17:16:14.228Z,2.00
2022-07-30T17:17:47.279Z,2.73
2022-07-30T17:19:22.419Z,2.07
2022-07-30T17:20:55.820Z,2.57
2022-07-30T17:22:28.895Z,2.10
2022-07-30T17:24:01.641Z,2.57
2022-07-30T17:25:34.495Z,1.90
2022-07-30T17:27:07.311Z,2.00
2022-07-30T17:28:41.360Z,2.87
2022-07-30T17:30:14.216Z,4.20
2022-07-30T17:31:47.286Z,3.63
2022-07-30T17:33:20.071Z,4.10
2022-07-30T17:34:52.838Z,12.90
2022-07-30T17:36:25.591Z,6.43
2022-07-30T17:37:58.407Z,7.10
2022-07-30T17:40:18.841Z,7.03
2022-07-30T17:41:24.008Z,10.47
2022-07-30T17:43:02.898Z,7.27
2022-07-30T17:44:37.003Z,6.70
2022-07-30T17:46:09.791Z,26.33
2022-07-30T17:47:42.602Z,6.27
2022-07-30T17:49:15.426Z,6.43
2022-07-30T17:50:48.594Z,8.13
2022-07-30T17:52:26.398Z,4.90
2022-07-30T17:53:59.656Z,2.97
2022-07-30T17:55:34.763Z,3.50
2022-07-30T17:57:07.744Z,3.10
2022-07-30T17:58:40.531Z,2.73
2022-07-30T18:00:15.414Z,6.83
2022-07-30T18:01:48.207Z,5.30
2022-07-30T18:03:20.988Z,4.40
2022-07-30T18:04:56.390Z,4.50
2022-07-30T18:06:29.656Z,2.70
2022-07-30T18:08:02.403Z,2.50
2022-07-30T18:09:39.609Z,3.77
2022-07-30T18:11:13.947Z,2.63
2022-07-30T18:12:49.190Z,2.40
2022-07-30T18:14:23.880Z,2.53
2022-07-30T18:15:58.085Z,2.30
2022-07-30T18:17:31.288Z,2.40
2022-07-30T18:19:04.371Z,3.13
2022-07-30T18:20:37.210Z,3.03
2022-07-30T18:22:22.240Z,2.40
2022-07-30T18:24:02.466Z,3.00
2022-07-30T18:25:51.755Z,2.00
2022-07-30T18:27:25.923Z,2.13
2022-07-30T18:28:58.676Z,2.27
2022-07-30T18:30:31.694Z,2.07
2022-07-30T18:32:09.640Z,3.50
2022-07-30T18:33:42.422Z,2.57
2022-07-30T18:35:15.860Z,2.60
2022-07-30T18:36:51.040Z,2.30
2022-07-30T18:38:23.831Z,2.30
2022-07-30T18:39:56.626Z,3.27
2022-07-30T18:41:30.074Z,2.20
2022-07-30T18:43:03.819Z,2.53
2022-07-30T18:44:36.607Z,2.00
2022-07-30T18:46:09.422Z,2.63
2022-07-30T18:47:45.615Z,1.80
2022-07-30T18:49:36.121Z,1.70
2022-07-30T18:51:13.906Z,2.00
2022-07-30T18:52:46.972Z,3.53
2022-07-30T18:54:19.750Z,2.07
2022-07-30T18:55:52.763Z,2.10
2022-07-30T18:57:25.539Z,1.90
2022-07-30T18:58:58.307Z,3.40
2022-07-30T19:00:35.530Z,1.80
2022-07-30T19:02:08.837Z,1.83
2022-07-30T19:03:42.947Z,3.77
2022-07-30T19:05:15.687Z,2.33
2022-07-30T19:06:48.530Z,3.00
2022-07-30T19:08:21.552Z,2.30
2022-07-30T19:09:55.642Z,2.63
2022-07-30T19:11:28.398Z,3.17
2022-07-30T19:13:01.433Z,2.43
2022-07-30T19:14:34.486Z,2.73
2022-07-30T19:16:07.636Z,4.77
2022-07-30T19:17:45.348Z,4.80
2022-07-30T19:19:20.951Z,2.83
2022-07-30T19:20:53.734Z,2.93
2022-07-30T19:22:29.539Z,3.10
2022-07-30T19:24:03.690Z,4.17
2022-07-30T19:25:39.115Z,3.67
2022-07-30T19:27:14.301Z,3.33
2022-07-30T19:28:47.292Z,3.77
2022-07-30T19:30:20.133Z,4.20
2022-07-30T19:31:52.891Z,3.50
2022-07-30T19:33:25.927Z,2.93
2022-07-30T19:34:59.983Z,5.10
2022-07-30T19:36:33.477Z,3.27
2022-07-30T19:38:07.102Z,3.43
2022-07-30T19:41:40.309Z,2.90
2022-07-30T19:43:13.135Z,3.23
2022-07-30T19:44:46.208Z,2.80
2022-07-30T19:46:20.591Z,4.33
2022-07-30T19:47:57.387Z,4.03
2022-07-30T19:49:30.261Z,8.13
2022-07-30T19:51:05.532Z,4.07
2022-07-30T19:52:51.413Z,4.20
2022-07-30T19:54:24.726Z,3.13
2022-07-30T19:55:58.059Z,3.93
2022-07-30T19:57:52.917Z,3.83
2022-07-30T19:59:45.765Z,3.33
2022-07-30T20:01:17.602Z,5.80
2022-07-30T20:02:51.124Z,4.17
2022-07-30T20:04:23.925Z,3.17
2022-07-30T20:05:59.691Z,3.83
2022-07-30T20:07:34.064Z,3.27
2022-07-30T20:09:12.566Z,3.57
2022-07-30T20:10:47.218Z,3.17
2022-07-30T20:12:19.954Z,6.07
2022-07-30T20:13:57.171Z,2.90
2022-07-30T20:15:30.220Z,3.57
2022-07-30T20:17:03.543Z,4.07
2022-07-30T20:18:36.284Z,3.53
2022-07-30T20:20:09.930Z,3.57
2022-07-30T20:21:55.885Z,3.63
2022-07-30T20:23:31.582Z,2.80
2022-07-30T20:25:05.237Z,2.93
2022-07-30T20:26:39.751Z,4.83
2022-07-30T20:28:14.872Z,3.43
2022-07-30T20:29:51.199Z,2.83
2022-07-30T20:31:23.956Z,3.63
2022-07-30T20:32:58.634Z,4.73
2022-07-30T20:34:32.461Z,4.77
2022-07-30T20:36:05.673Z,3.73
2022-07-30T20:37:54.758Z,6.47
2022-07-30T20:39:30.152Z,3.00
2022-07-30T20:41:03.206Z,4.13
2022-07-30T20:42:43.484Z,2.90
2022-07-30T20:44:23.500Z,4.57
2022-07-30T20:45:56.648Z,4.53
2022-07-30T20:47:37.539Z,3.03
2022-07-30T20:49:11.437Z,4.40
2022-07-30T20:50:45.970Z,2.80
2022-07-30T20:52:18.763Z,3.30
2022-07-30T20:53:51.530Z,3.73
2022-07-30T20:55:25.639Z,2.70
2022-07-30T20:57:00.199Z,3.10
2022-07-30T20:58:33.615Z,5.10
2022-07-30T21:00:07.935Z,4.77
2022-07-30T21:01:41.658Z,2.63
2022-07-30T21:03:16.223Z,3.27
2022-07-30T21:04:49.027Z,3.10
2022-07-30T21:06:22.551Z,3.60
2022-07-30T21:07:59.021Z,3.97
2022-07-30T21:09:49.944Z,3.30
2022-07-30T21:11:26.454Z,3.40